Spooner, Minnesota
Current Conditions -  °F | °C
As of 5:53 PM on Friday 31 Oct 2014 (Local Time) from KBDE Reporting Station
Clear Clear  
Wind Chill: 28°   Ceiling: Unl
Heat Index: 33°   Visibility: 10mi
Dew Point: 18°   Wind: 6mph
Humidity: 54%   Direction: 180°S
Pressure: 30.44"   Gusts: NA
Location:  48.5595°N, 94.661°W
Report Text: KBDE 312253Z AUTO 18005KT 10SM CLR 01/M08 A3044 RMK AO2 SLP329 T00061078 TSNO
Loading
Personal Weather Stations






























Interactive Weather Map
Tropical Storm Tracking
New forecast layout! Learn more

10-Day Weather Forecast

Advertisements
Track Severe Weather on mobile